Witherspoon, Arkansas
Current Conditions -  °F | °C
As of 1:06 AM on Wednesday 22 Oct 2014 (Local Time) from KADF Reporting Station
Haze Haze  
Wind Chill: 55°   Ceiling: Unl
Heat Index: 55°   Visibility: 6mi
Dew Point: 55°   Wind: 0mph
Humidity: 100%   Direction: NA
Pressure: 30.11"   Gusts: NA
Location:  34.0941°N, 93.0475°W
Report Text: KADF 220606Z AUTO 00000KT 6SM BR CLR 13/13 A3011 RMK AO2
Loading
Personal Weather Stations






























Interactive Weather Map
Tropical Storm Tracking
New forecast layout! Learn more

10-Day Weather Forecast

Advertisements
Track Severe Weather on mobile